Time;durP1;ratioP1;P1;durP2;ratioP2;P2;SDS_P1;SDS_P2;PMS_P1;PMS_P2;Temp;Humidity;BMP_temperature;BMP_pressure;BME280_temperature;BME280_humidity;BME280_pressure;Samples;Min_cycle;Max_cycle;Signal;HPM_P1;HPM_P2
2021/11/09 00:02:35;;;;;;;;;;;5.80;99.90;;;;;;5093248;28;20028;-75
2021/11/09 00:05:29;;;;;;;38.55;20.30;;;5.80;99.90;;;;;;5093627;28;19904;-75
2021/11/09 00:08:07;;;;;;;33.42;18.27;;;5.90;99.90;;;;;;5092280;28;20077;-75
2021/11/09 00:10:36;;;;;;;32.15;18.15;;;5.90;99.90;;;;;;5088328;28;20063;-75
2021/11/09 00:13:44;;;;;;;30.00;17.98;;;5.90;99.90;;;;;;5078814;28;20047;-75
2021/11/09 00:16:40;;;;;;;31.13;16.02;;;5.80;99.90;;;;;;5073175;28;20032;-75
2021/11/09 00:19:27;;;;;;;32.22;17.92;;;5.80;99.90;;;;;;5090912;28;20028;-75
2021/11/09 00:22:00;;;;;;;26.65;14.48;;;5.90;99.90;;;;;;5057562;28;20565;-75
2021/11/09 00:24:29;;;;;;;28.42;16.92;;;5.80;99.90;;;;;;5074874;28;20146;-75
2021/11/09 00:26:54;;;;;;;29.58;15.98;;;5.80;99.90;;;;;;5091001;28;20493;-75
2021/11/09 00:29:20;;;;;;;34.92;22.05;;;5.80;99.90;;;;;;5090888;28;20052;-75
2021/11/09 00:31:45;;;;;;;31.45;18.20;;;5.80;99.90;;;;;;5091056;28;20024;-75
2021/11/09 00:34:11;;;;;;;26.52;15.20;;;5.80;99.90;;;;;;5090929;28;20428;-75
2021/11/09 00:36:37;;;;;;;29.52;16.20;;;5.80;99.90;;;;;;5090956;28;20028;-74
2021/11/09 00:39:06;;;;;;;28.17;16.98;;;5.80;99.90;;;;;;5090888;28;20036;-74
2021/11/09 00:41:31;;;;;;;30.75;18.23;;;5.80;99.90;;;;;;5090780;28;20024;-75
2021/11/09 00:43:57;;;;;;;30.23;16.65;;;5.80;99.90;;;;;;5090839;28;20077;-74
2021/11/09 00:46:23;;;;;;;28.85;15.10;;;5.80;99.90;;;;;;5090763;28;20062;-75
2021/11/09 00:48:48;;;;;;;24.92;16.20;;;5.80;99.90;;;;;;5090777;28;20040;-75
2021/11/09 00:51:14;;;;;;;28.75;16.02;;;5.80;99.90;;;;;;5075571;28;20064;-75
2021/11/09 00:53:40;;;;;;;32.22;19.75;;;5.80;99.90;;;;;;5072685;28;20028;-74
2021/11/09 00:56:07;;;;;;;29.10;16.30;;;5.80;99.90;;;;;;5071410;28;20047;-74
2021/11/09 00:58:32;;;;;;;39.30;20.27;;;5.80;99.90;;;;;;5072697;28;20069;-75
2021/11/09 01:00:58;;;;;;;29.33;18.30;;;5.80;99.90;;;;;;5072607;28;20095;-74
2021/11/09 01:03:25;;;;;;;28.05;16.23;;;5.90;99.90;;;;;;5071322;28;20020;-74
2021/11/09 01:05:50;;;;;;;27.92;16.20;;;5.90;99.90;;;;;;5072550;28;20390;-74
2021/11/09 01:08:18;;;;;;;25.45;15.27;;;5.90;99.90;;;;;;5071211;28;20025;-75
2021/11/09 01:10:48;;;;;;;23.48;14.65;;;5.90;99.90;;;;;;5072782;28;20060;-75
2021/11/09 01:13:15;;;;;;;25.80;15.15;;;5.80;99.90;;;;;;5076639;28;20023;-74
2021/11/09 01:15:50;;;;;;;52.03;26.63;;;5.80;99.90;;;;;;5076433;28;20013;-74
2021/11/09 01:18:28;;;;;;;27.20;15.25;;;5.80;99.90;;;;;;5076553;28;20071;-74
2021/11/09 01:20:55;;;;;;;29.60;17.98;;;5.80;99.90;;;;;;5076439;28;20025;-75
2021/11/09 01:23:21;;;;;;;30.13;16.67;;;5.90;99.90;;;;;;5075073;28;20027;-75
2021/11/09 01:25:47;;;;;;;27.27;16.65;;;5.80;99.90;;;;;;5075015;28;20383;-75
2021/11/09 01:28:13;;;;;;;28.67;15.75;;;5.80;99.90;;;;;;5076215;28;20090;-75
2021/11/09 01:30:39;;;;;;;30.10;16.58;;;5.80;99.90;;;;;;5074866;28;20059;-75
2021/11/09 01:33:06;;;;;;;29.80;17.10;;;5.80;99.90;;;;;;5074924;28;20028;-75
2021/11/09 01:35:31;;;;;;;33.55;21.02;;;5.80;99.90;;;;;;5076092;28;20108;-74
2021/11/09 01:37:58;;;;;;;31.42;17.95;;;5.80;99.90;;;;;;5076124;28;20059;-76
2021/11/09 01:40:24;;;;;;;27.73;15.38;;;5.80;99.90;;;;;;5074691;28;20017;-74
2021/11/09 01:42:52;;;;;;;30.38;17.98;;;5.80;99.90;;;;;;5076007;28;20052;-74
2021/11/09 01:45:19;;;;;;;30.75;18.15;;;5.80;99.90;;;;;;5075963;28;20067;-74
2021/11/09 01:47:46;;;;;;;31.00;17.73;;;5.80;99.90;;;;;;5075776;28;20028;-75
2021/11/09 01:50:15;;;;;;;25.95;14.15;;;5.80;99.90;;;;;;5075859;28;20032;-75
2021/11/09 01:52:41;;;;;;;25.55;16.20;;;5.80;99.90;;;;;;5074569;28;20045;-75
2021/11/09 01:55:11;;;;;;;26.05;14.90;;;5.80;99.90;;;;;;5075731;28;20025;-75
2021/11/09 01:57:37;;;;;;;24.92;13.90;;;5.80;99.90;;;;;;5074483;28;20117;-75
2021/11/09 02:00:10;;;;;;;25.23;16.08;;;5.80;99.90;;;;;;5075620;28;20116;-75
2021/11/09 02:02:36;;;;;;;24.05;14.20;;;5.80;99.90;;;;;;5075649;28;20032;-75
2021/11/09 02:05:02;;;;;;;26.38;16.05;;;5.80;99.90;;;;;;5075620;28;20020;-75
2021/11/09 02:07:28;;;;;;;24.33;14.32;;;5.80;99.90;;;;;;5075444;28;20024;-75
2021/11/09 02:09:54;;;;;;;24.73;14.70;;;5.80;99.90;;;;;;5075661;28;20394;-75
2021/11/09 02:12:19;;;;;;;28.55;16.83;;;5.80;99.90;;;;;;5074202;28;20012;-75
2021/11/09 02:14:45;;;;;;;19.10;11.90;;;5.80;99.90;;;;;;5075610;28;20455;-75
2021/11/09 02:17:11;;;;;;;45.95;24.50;;;5.80;99.90;;;;;;5075429;28;20489;-75
2021/11/09 02:19:38;;;;;;;33.60;19.10;;;5.80;99.90;;;;;;5073910;28;20035;-75
2021/11/09 02:22:04;;;;;;;88.70;40.90;;;5.80;99.90;;;;;;5075225;28;20029;-75
2021/11/09 02:24:30;;;;;;;54.25;26.35;;;5.80;99.90;;;;;;5075179;28;20093;-75
2021/11/09 02:26:55;;;;;;;43.22;22.67;;;5.80;99.90;;;;;;5075251;28;20104;-75
2021/11/09 02:29:21;;;;;;;42.92;22.20;;;5.80;99.90;;;;;;5074949;28;20036;-75
2021/11/09 02:31:47;;;;;;;30.15;17.25;;;5.80;99.90;;;;;;5090688;28;20111;-75
2021/11/09 02:34:13;;;;;;;24.10;14.27;;;5.80;99.90;;;;;;5073788;28;20081;-75
2021/11/09 02:36:39;;;;;;;25.23;14.00;;;5.80;99.90;;;;;;5073698;28;20074;-75
2021/11/09 02:39:05;;;;;;;20.88;12.30;;;5.70;99.90;;;;;;5073692;28;20408;-75
2021/11/09 02:41:30;;;;;;;53.05;26.35;;;5.80;99.90;;;;;;5074869;28;20031;-75
2021/11/09 02:43:58;;;;;;;72.05;33.42;;;5.80;99.90;;;;;;5074841;28;20016;-75
2021/11/09 02:46:33;;;;;;;47.22;25.13;;;5.80;99.90;;;;;;5078599;28;20028;-75
2021/11/09 02:54:08;;;;;;;39.72;20.92;;;5.80;99.90;;;;;;5095327;28;20474;-75
2021/11/09 02:56:46;;;;;;;68.07;33.88;;;5.80;99.90;;;;;;5094844;28;20023;-75
2021/11/09 03:01:49;;;;;;;23.95;15.65;;;5.80;99.90;;;;;;5094750;28;20058;-74
2021/11/09 03:10:06;;;;;;;62.25;31.80;;;5.80;99.90;;;;;;5091816;28;20044;-74
2021/11/09 03:12:33;;;;;;;41.78;22.27;;;5.80;99.90;;;;;;5093363;28;20024;-75
2021/11/09 03:15:00;;;;;;;46.67;24.08;;;5.80;99.90;;;;;;5094498;28;20021;-75
2021/11/09 03:17:34;;;;;;;35.92;20.58;;;5.80;99.90;;;;;;5094306;28;20099;-75
2021/11/09 03:20:02;;;;;;;78.97;43.95;;;5.80;99.90;;;;;;5094478;28;20073;-75
2021/11/09 03:47:32;;;;;;;16.80;9.73;;;5.80;99.90;;;;;;5089104;28;20458;-74
2021/11/09 03:49:59;;;;;;;31.88;17.73;;;5.70;99.90;;;;;;5093700;28;20462;-74
2021/11/09 03:52:28;;;;;;;25.45;16.08;;;5.80;99.90;;;;;;5093788;28;20027;-74
2021/11/09 03:55:04;;;;;;;25.75;14.15;;;5.70;99.90;;;;;;5093695;28;20031;-74
2021/11/09 04:05:10;;;;;;;20.75;12.63;;;5.70;99.90;;;;;;5073345;28;20028;-75
2021/11/09 04:20:42;;;;;;;22.35;13.55;;;5.70;99.90;;;;;;5073318;28;20050;-75
2021/11/09 04:28:58;;;;;;;22.67;12.65;;;5.80;99.90;;;;;;5072949;28;20039;-74
2021/11/09 04:34:37;;;;;;;23.17;12.32;;;5.70;99.90;;;;;;5073280;28;20501;-74
2021/11/09 05:09:29;;;;;;;35.42;17.42;;;5.70;99.90;;;;;;5089211;28;20469;-75
2021/11/09 05:11:55;;;;;;;41.75;23.52;;;5.70;99.90;;;;;;5080657;28;20048;-75
2021/11/09 05:14:21;;;;;;;34.40;20.08;;;5.70;99.90;;;;;;5084242;28;20046;-75
2021/11/09 05:16:46;;;;;;;38.08;20.48;;;5.70;99.90;;;;;;5083766;28;20054;-75
2021/11/09 05:19:12;;;;;;;41.00;21.92;;;5.70;99.90;;;;;;5088332;28;20081;-75
2021/11/09 05:21:39;;;;;;;30.67;17.88;;;5.70;99.90;;;;;;5084998;28;20017;-75
2021/11/09 05:24:06;;;;;;;621.38;249.20;;;5.70;99.90;;;;;;5083616;28;20024;-74
2021/11/09 05:26:32;;;;;;;85.78;35.63;;;5.70;99.90;;;;;;5087039;28;20093;-74
2021/11/09 05:28:58;;;;;;;151.27;57.03;;;5.70;99.90;;;;;;5078110;28;20506;-74
2021/11/09 05:31:23;;;;;;;158.25;57.45;;;5.70;99.90;;;;;;5082920;28;20032;-74
2021/11/09 05:33:54;;;;;;;104.20;42.85;;;5.70;99.90;;;;;;5082393;28;20107;-75
2021/11/09 05:36:20;;;;;;;41.03;21.02;;;5.70;99.90;;;;;;5076828;28;20017;-74
2021/11/09 05:38:57;;;;;;;36.65;20.23;;;5.70;99.90;;;;;;5080042;28;20120;-75
2021/11/09 05:41:24;;;;;;;45.17;24.33;;;5.60;99.90;;;;;;5080746;28;20063;-75
2021/11/09 05:43:49;;;;;;;137.20;54.38;;;5.70;99.90;;;;;;5082681;28;20024;-75
2021/11/09 05:46:15;;;;;;;73.28;29.27;;;5.70;99.90;;;;;;5081578;28;20028;-74
2021/11/09 05:48:41;;;;;;;46.97;23.80;;;5.70;99.90;;;;;;5084846;28;20052;-74
2021/11/09 05:51:08;;;;;;;40.75;21.60;;;5.70;99.90;;;;;;5082268;28;20063;-74
2021/11/09 05:53:35;;;;;;;191.60;77.25;;;5.70;99.90;;;;;;5081859;28;20470;-74
2021/11/09 05:56:05;;;;;;;108.80;46.38;;;5.70;99.90;;;;;;5087577;28;20488;-75
2021/11/09 05:58:31;;;;;;;90.63;35.90;;;5.70;99.90;;;;;;5090387;28;20052;-74
2021/11/09 06:00:57;;;;;;;78.47;33.65;;;5.70;99.90;;;;;;5088587;28;20067;-74
2021/11/09 06:03:23;;;;;;;102.85;42.20;;;5.70;99.90;;;;;;5081402;28;20036;-74
2021/11/09 06:05:53;;;;;;;35.95;18.45;;;5.70;99.90;;;;;;5080993;28;20107;-74
2021/11/09 06:08:19;;;;;;;32.95;17.98;;;5.70;99.90;;;;;;5093241;27;20097;-74
2021/11/09 06:10:46;;;;;;;32.60;19.73;;;5.70;99.90;;;;;;5093864;28;20541;-74
2021/11/09 06:13:12;;;;;;;33.67;17.70;;;5.70;99.90;;;;;;5094828;27;20028;-74
2021/11/09 06:15:38;;;;;;;35.78;18.67;;;5.70;99.90;;;;;;5079912;28;20035;-74
2021/11/09 06:18:03;;;;;;;50.38;22.83;;;5.70;99.90;;;;;;5074858;28;20098;-74
2021/11/09 06:20:29;;;;;;;69.07;29.63;;;5.70;99.90;;;;;;5091706;28;20420;-75
2021/11/09 06:22:55;;;;;;;38.35;19.92;;;5.70;99.90;;;;;;5094860;27;20089;-74
2021/11/09 06:25:23;;;;;;;32.55;18.35;;;5.70;99.90;;;;;;5093536;28;20023;-74
2021/11/09 06:27:53;;;;;;;26.75;16.02;;;5.80;99.90;;;;;;5092467;27;20378;-74
2021/11/09 06:30:20;;;;;;;55.03;22.45;;;5.70;99.90;;;;;;5094003;28;20023;-74
2021/11/09 06:32:46;;;;;;;81.85;32.47;;;5.80;99.90;;;;;;5094392;27;20056;-74
2021/11/09 06:35:12;;;;;;;91.13;37.30;;;5.70;99.90;;;;;;5094295;28;20024;-74
2021/11/09 06:37:38;;;;;;;33.05;16.30;;;5.70;99.90;;;;;;5090689;28;20036;-75
2021/11/09 06:40:06;;;;;;;64.75;28.05;;;5.70;99.90;;;;;;5093854;28;20031;-75
2021/11/09 06:42:32;;;;;;;118.35;41.38;;;5.70;99.90;;;;;;5093122;28;20028;-75
2021/11/09 06:44:58;;;;;;;40.42;19.35;;;5.70;99.90;;;;;;5115251;28;20015;-75
2021/11/09 06:47:24;;;;;;;48.67;21.17;;;5.70;99.90;;;;;;5115024;28;20107;-75
2021/11/09 06:49:49;;;;;;;40.97;17.50;;;5.80;99.90;;;;;;5115251;28;20031;-75
2021/11/09 06:52:15;;;;;;;59.45;24.23;;;5.80;99.90;;;;;;5103036;28;20519;-75
2021/11/09 06:54:42;;;;;;;36.05;19.10;;;5.80;99.90;;;;;;5092998;28;20016;-74
2021/11/09 06:57:12;;;;;;;36.17;18.85;;;5.80;99.90;;;;;;5073305;28;20385;-75
2021/11/09 06:59:38;;;;;;;52.15;24.17;;;5.80;99.90;;;;;;5078015;28;20043;-75
2021/11/09 07:02:05;;;;;;;27.88;16.20;;;5.80;99.90;;;;;;5090949;28;20024;-75
2021/11/09 07:04:31;;;;;;;23.35;13.38;;;5.80;99.90;;;;;;5083094;28;20024;-75
2021/11/09 07:06:57;;;;;;;66.38;25.80;;;5.80;99.90;;;;;;5070174;28;20023;-75
2021/11/09 07:09:23;;;;;;;72.10;29.65;;;5.80;99.90;;;;;;5068956;28;20036;-75
2021/11/09 07:11:49;;;;;;;105.20;40.20;;;5.90;99.90;;;;;;5070372;28;20051;-75
2021/11/09 07:14:15;;;;;;;28.38;14.93;;;5.90;99.90;;;;;;5072030;28;20486;-75
2021/11/09 07:16:44;;;;;;;25.65;14.23;;;5.90;99.90;;;;;;5073000;28;20020;-75
2021/11/09 07:19:10;;;;;;;24.80;12.88;;;5.90;99.90;;;;;;5097092;28;20485;-75
2021/11/09 07:21:35;;;;;;;58.50;23.27;;;5.90;99.90;;;;;;5093757;28;20030;-75
2021/11/09 07:24:01;;;;;;;41.08;16.75;;;6.00;99.90;;;;;;5094441;28;20107;-75
2021/11/09 07:26:28;;;;;;;28.15;13.70;;;6.00;99.90;;;;;;5094455;28;20074;-75
2021/11/09 07:28:55;;;;;;;21.33;12.10;;;6.00;99.90;;;;;;5094228;28;20078;-75
2021/11/09 07:31:21;;;;;;;32.95;15.70;;;6.00;99.90;;;;;;5094148;28;20034;-75
2021/11/09 07:33:49;;;;;;;42.78;17.55;;;6.00;99.90;;;;;;5094000;28;20023;-75
2021/11/09 07:36:15;;;;;;;42.60;18.65;;;6.10;99.90;;;;;;5093956;28;20023;-75
2021/11/09 07:38:41;;;;;;;163.43;58.53;;;6.10;99.90;;;;;;5092657;28;20016;-75
2021/11/09 07:41:07;;;;;;;42.95;19.30;;;6.10;99.90;;;;;;5088645;28;20073;-75
2021/11/09 07:43:32;;;;;;;57.33;23.58;;;6.10;99.90;;;;;;5073751;28;20028;-75
2021/11/09 07:45:59;;;;;;;26.30;14.20;;;6.10;99.90;;;;;;5073530;28;20024;-75
2021/11/09 07:48:26;;;;;;;49.22;20.88;;;6.10;99.90;;;;;;5073432;28;20024;-75
2021/11/09 07:50:51;;;;;;;25.65;13.45;;;6.10;99.90;;;;;;5073593;28;20028;-75
2021/11/09 07:53:18;;;;;;;97.80;40.17;;;6.20;99.90;;;;;;5073521;28;20021;-75
2021/11/09 07:56:05;;;;;;;59.40;25.13;;;6.20;99.90;;;;;;5073444;28;20079;-75
2021/11/09 07:58:38;;;;;;;23.83;12.20;;;6.20;99.90;;;;;;5073436;28;20028;-75
2021/11/09 08:01:08;;;;;;;28.83;13.30;;;6.20;99.90;;;;;;5073406;28;20068;-75
2021/11/09 08:06:30;;;;;;;19.08;11.77;;;6.30;99.90;;;;;;5073298;28;20032;-75
2021/11/09 08:11:22;;;;;;;70.82;33.08;;;6.30;99.90;;;;;;5073509;28;20035;-75
2021/11/09 08:13:47;;;;;;;72.88;32.63;;;6.30;99.90;;;;;;5073216;28;20021;-75
2021/11/09 08:16:14;;;;;;;37.22;19.50;;;6.40;99.90;;;;;;5073175;28;20123;-75
2021/11/09 08:18:40;;;;;;;46.53;23.95;;;6.40;99.90;;;;;;5072950;28;20027;-75
2021/11/09 08:21:07;;;;;;;24.10;15.35;;;6.50;99.90;;;;;;5073067;28;20028;-75
2021/11/09 08:23:33;;;;;;;19.95;12.25;;;6.50;99.90;;;;;;5073018;28;20020;-75
2021/11/09 08:25:59;;;;;;;33.63;22.90;;;6.50;99.90;;;;;;5072960;28;20082;-75
2021/11/09 08:28:24;;;;;;;47.28;26.35;;;6.60;99.90;;;;;;5072947;28;20032;-75
2021/11/09 08:30:55;;;;;;;30.40;17.75;;;6.60;99.90;;;;;;5071685;28;20444;-75
2021/11/09 08:33:24;;;;;;;39.03;21.35;;;6.60;99.90;;;;;;5071646;28;20021;-75
2021/11/09 08:35:50;;;;;;;48.90;25.30;;;6.70;99.90;;;;;;5072901;28;20020;-75
2021/11/09 08:38:16;;;;;;;24.40;14.90;;;6.80;99.90;;;;;;5072884;28;20069;-75
2021/11/09 08:40:43;;;;;;;32.22;18.83;;;6.90;99.90;;;;;;5072813;28;20031;-75
2021/11/09 08:43:10;;;;;;;16.75;10.70;;;6.90;99.90;;;;;;5073003;28;20024;-75
2021/11/09 08:45:40;;;;;;;26.48;15.00;;;6.90;99.90;;;;;;5072752;28;20101;-75
2021/11/09 08:48:17;;;;;;;47.65;25.05;;;6.90;99.90;;;;;;5090456;28;20541;-75
2021/11/09 08:50:43;;;;;;;27.98;15.60;;;6.90;99.90;;;;;;5092944;28;20078;-75
2021/11/09 08:53:19;;;;;;;31.70;17.75;;;7.00;99.90;;;;;;5079456;28;20028;-75
2021/11/09 08:58:21;;;;;;;17.92;10.43;;;7.00;99.90;;;;;;5092968;28;20024;-75
2021/11/09 09:06:22;;;;;;;21.02;13.23;;;7.00;99.90;;;;;;5072946;28;20036;-75
2021/11/09 09:08:48;;;;;;;23.02;12.63;;;7.10;99.90;;;;;;5072471;28;20033;-75
2021/11/09 09:11:14;;;;;;;20.35;11.27;;;7.10;99.90;;;;;;5072672;28;20029;-75
2021/11/09 09:13:39;;;;;;;16.65;9.15;;;7.20;99.90;;;;;;5087808;28;20488;-75
2021/11/09 09:16:06;;;;;;;23.42;14.60;;;7.30;99.90;;;;;;5092732;28;20374;-75
2021/11/09 09:18:33;;;;;;;17.25;11.25;;;7.30;99.90;;;;;;5092706;28;20058;-75
2021/11/09 09:21:08;;;;;;;27.45;16.02;;;7.40;99.90;;;;;;5092687;28;20020;-75
2021/11/09 09:23:35;;;;;;;24.23;14.63;;;7.40;99.90;;;;;;5091718;28;20051;-75
2021/11/09 09:29:11;;;;;;;23.30;13.38;;;7.40;99.90;;;;;;5092581;28;20040;-75
2021/11/09 09:55:47;;;;;;;15.15;8.45;;;8.20;99.90;;;;;;5096055;28;20028;-75
2021/11/09 09:58:13;;;;;;;15.55;9.68;;;8.10;99.90;;;;;;5096081;28;20024;-75
2021/11/09 10:00:41;;;;;;;14.15;9.10;;;8.20;99.90;;;;;;5095906;28;20381;-75
2021/11/09 10:03:07;;;;;;;14.82;9.80;;;8.30;99.90;;;;;;5095984;28;20020;-75
2021/11/09 10:05:38;;;;;;;37.35;23.55;;;8.30;99.90;;;;;;5095774;28;20077;-75
2021/11/09 10:08:23;;;;;;;26.98;17.73;;;8.40;99.90;;;;;;5095849;28;20063;-75
2021/11/09 10:10:49;;;;;;;17.10;11.70;;;8.40;99.90;;;;;;5095259;28;20047;-75
2021/11/09 10:13:20;;;;;;;18.52;10.25;;;8.40;99.90;;;;;;5095813;28;20020;-75
2021/11/09 10:15:53;;;;;;;22.23;13.63;;;8.40;99.90;;;;;;5094328;28;20032;-75
2021/11/09 10:18:21;;;;;;;23.13;15.38;;;8.40;99.90;;;;;;5095671;28;20020;-75
2021/11/09 10:21:07;;;;;;;16.58;10.18;;;8.30;99.90;;;;;;5094273;28;20039;-75
2021/11/09 10:23:34;;;;;;;24.58;14.95;;;8.30;99.90;;;;;;5095156;28;20036;-75
2021/11/09 10:26:15;;;;;;;32.83;18.58;;;8.40;99.90;;;;;;5095385;28;20028;-75
2021/11/09 10:28:41;;;;;;;21.17;13.45;;;8.40;99.90;;;;;;5094150;28;20575;-75
2021/11/09 10:31:10;;;;;;;35.95;18.92;;;8.40;99.90;;;;;;5093338;28;20020;-75
2021/11/09 10:33:46;;;;;;;23.98;12.40;;;8.30;99.90;;;;;;5093116;28;20020;-75
2021/11/09 10:36:25;;;;;;;30.95;14.68;;;8.30;99.90;;;;;;5093283;28;20032;-75
2021/11/09 10:38:52;;;;;;;37.20;22.88;;;8.40;99.90;;;;;;5093113;28;20027;-75
2021/11/09 10:41:18;;;;;;;15.10;9.93;;;8.40;99.90;;;;;;5091812;28;20385;-75
2021/11/09 10:43:45;;;;;;;12.80;9.48;;;8.40;99.90;;;;;;5093159;28;20487;-75
2021/11/09 10:46:26;;;;;;;16.83;10.27;;;8.30;99.90;;;;;;5093543;28;20020;-75
2021/11/09 10:48:52;;;;;;;13.75;9.98;;;8.30;99.90;;;;;;5094941;28;20036;-75
2021/11/09 10:51:18;;;;;;;18.95;13.02;;;8.20;99.90;;;;;;5095029;28;20024;-75
2021/11/09 10:53:53;;;;;;;18.63;12.73;;;8.20;99.90;;;;;;5094931;28;20034;-76
2021/11/09 11:04:14;;;;;;;63.15;36.90;;;8.00;99.90;;;;;;5095101;28;20070;-76
2021/11/09 11:06:45;;;;;;;51.90;30.13;;;8.00;99.90;;;;;;5093457;28;20024;-75
2021/11/09 11:09:13;;;;;;;30.27;20.00;;;8.10;99.90;;;;;;5094326;28;20028;-75
2021/11/09 11:11:50;;;;;;;23.90;17.23;;;8.10;99.90;;;;;;5094544;28;20032;-76
2021/11/09 11:14:25;;;;;;;20.23;12.10;;;8.10;99.90;;;;;;5094336;28;20061;-76
2021/11/09 11:17:10;;;;;;;17.75;10.75;;;8.00;99.90;;;;;;5093060;28;20016;-75
2021/11/09 11:19:57;;;;;;;22.85;14.18;;;8.00;99.90;;;;;;5093135;28;20363;-75
2021/11/09 11:22:28;;;;;;;23.10;14.63;;;8.00;99.90;;;;;;5094498;28;20055;-76
2021/11/09 11:24:55;;;;;;;18.88;11.85;;;7.90;99.90;;;;;;5093026;28;20027;-75
2021/11/09 11:27:22;;;;;;;17.55;12.35;;;7.80;99.90;;;;;;5094269;28;20042;-76
2021/11/09 11:29:49;;;;;;;20.38;13.38;;;7.70;99.90;;;;;;5094068;28;20035;-75
2021/11/09 11:32:22;;;;;;;19.33;11.25;;;7.70;99.90;;;;;;5094304;28;20103;-75
2021/11/09 11:34:48;;;;;;;14.15;9.68;;;7.70;99.90;;;;;;5092808;28;20020;-75
2021/11/09 11:37:16;;;;;;;17.15;11.18;;;7.70;99.90;;;;;;5092864;28;20028;-76
2021/11/09 11:39:42;;;;;;;17.92;10.63;;;7.80;99.90;;;;;;5093942;28;20024;-75
2021/11/09 11:42:13;;;;;;;14.98;10.18;;;7.80;99.90;;;;;;5094046;28;20013;-76
2021/11/09 11:44:41;;;;;;;13.75;8.50;;;7.90;99.90;;;;;;5092698;28;20474;-75
2021/11/09 11:47:10;;;;;;;16.27;11.15;;;7.90;99.90;;;;;;5092677;28;20111;-75
2021/11/09 11:49:41;;;;;;;24.33;15.20;;;8.00;99.90;;;;;;5093753;28;20040;-76
2021/11/09 11:52:21;;;;;;;18.63;11.60;;;8.10;99.90;;;;;;5092583;28;20378;-76
2021/11/09 11:55:05;;;;;;;17.08;9.15;;;8.10;99.90;;;;;;5092015;28;20082;-76
2021/11/09 11:57:44;;;;;;;19.88;11.73;;;8.20;99.90;;;;;;5093882;28;20059;-76
2021/11/09 12:00:38;;;;;;;12.70;8.35;;;8.40;99.90;;;;;;5092444;28;20108;-76
2021/11/09 12:03:24;;;;;;;30.00;15.40;;;8.40;99.90;;;;;;5092385;28;20393;-75
2021/11/09 12:05:53;;;;;;;29.42;16.52;;;8.40;99.90;;;;;;5078758;28;20028;-75
2021/11/09 12:08:35;;;;;;;15.02;9.75;;;8.40;99.90;;;;;;5092195;28;20063;-76
2021/11/09 12:11:02;;;;;;;16.35;9.27;;;8.50;99.90;;;;;;5094118;28;20106;-76
2021/11/09 12:13:28;;;;;;;15.25;9.25;;;8.60;99.90;;;;;;5093507;28;20098;-76
2021/11/09 12:16:00;;;;;;;14.13;8.85;;;8.70;99.90;;;;;;5092123;28;20114;-76
2021/11/09 12:18:32;;;;;;;13.73;9.10;;;8.70;99.90;;;;;;5093459;28;20027;-76
2021/11/09 12:21:00;;;;;;;12.93;9.15;;;8.80;99.90;;;;;;5093382;28;20032;-76
2021/11/09 12:23:27;;;;;;;17.35;10.98;;;8.90;99.90;;;;;;5093369;28;20028;-76
2021/11/09 12:25:53;;;;;;;20.45;12.30;;;9.00;99.90;;;;;;5093234;28;20039;-76
2021/11/09 12:28:36;;;;;;;14.57;9.45;;;9.00;99.90;;;;;;5093155;28;20067;-76
2021/11/09 12:31:13;;;;;;;26.67;15.07;;;9.10;99.90;;;;;;5093293;28;20024;-76
2021/11/09 12:33:47;;;;;;;23.55;14.60;;;9.10;99.90;;;;;;5091910;28;20028;-76
2021/11/09 12:36:13;;;;;;;27.38;15.38;;;9.10;99.90;;;;;;5091891;28;20020;-76
2021/11/09 12:38:41;;;;;;;27.05;15.95;;;9.10;99.90;;;;;;5093043;28;20031;-76
2021/11/09 12:41:09;;;;;;;26.38;16.75;;;9.10;99.90;;;;;;5093107;28;20419;-76
2021/11/09 12:43:54;;;;;;;39.28;20.63;;;9.10;99.90;;;;;;5091840;28;20032;-76
2021/11/09 12:46:33;;;;;;;16.10;9.00;;;9.20;99.90;;;;;;5073979;28;20020;-76
2021/11/09 12:49:24;;;;;;;18.95;11.45;;;9.10;99.90;;;;;;5082351;28;20122;-76
2021/11/09 12:51:53;;;;;;;16.65;11.43;;;8.70;99.90;;;;;;5087478;28;20021;-76
2021/11/09 12:54:28;;;;;;;15.98;11.00;;;8.40;99.90;;;;;;5072750;28;20059;-76
2021/11/09 12:56:58;;;;;;;14.95;8.52;;;8.30;99.90;;;;;;5071540;28;20044;-76
2021/11/09 12:59:28;;;;;;;15.40;10.88;;;8.10;99.90;;;;;;5071319;28;20025;-76
2021/11/09 13:09:49;;;;;;;11.32;8.63;;;7.90;99.90;;;;;;5096762;28;20394;-76
2021/11/09 13:12:20;;;;;;;14.48;9.38;;;7.80;99.90;;;;;;5095756;28;20016;-76
2021/11/09 13:14:57;;;;;;;14.45;8.63;;;7.90;99.90;;;;;;5096878;28;20174;-76
2021/11/09 13:17:33;;;;;;;13.95;9.20;;;7.90;99.90;;;;;;5096815;28;20024;-75
2021/11/09 13:20:07;;;;;;;15.30;9.00;;;7.90;99.90;;;;;;5096805;28;20028;-76
2021/11/09 13:22:33;;;;;;;16.33;10.10;;;7.90;99.90;;;;;;5096753;28;20103;-76
2021/11/09 13:25:09;;;;;;;12.77;9.82;;;7.90;99.90;;;;;;5095363;28;20047;-75
2021/11/09 13:27:48;;;;;;;13.57;8.20;;;7.90;99.90;;;;;;5090165;28;20104;-76
2021/11/09 13:30:19;;;;;;;13.50;8.15;;;7.80;99.90;;;;;;5076189;28;20041;-76
2021/11/09 13:32:52;;;;;;;14.15;8.75;;;7.90;99.90;;;;;;5076124;28;20021;-76
2021/11/09 13:35:31;;;;;;;16.77;9.77;;;7.90;99.90;;;;;;5076254;28;20028;-76
2021/11/09 13:38:18;;;;;;;15.40;9.15;;;7.90;99.90;;;;;;5076226;28;20029;-76
2021/11/09 13:40:43;;;;;;;12.98;8.77;;;7.90;99.90;;;;;;5076050;28;20029;-76
2021/11/09 13:43:12;;;;;;;13.23;8.20;;;7.90;99.90;;;;;;5075225;28;20031;-76
2021/11/09 13:45:39;;;;;;;13.32;8.70;;;7.90;99.90;;;;;;5076202;28;20016;-76
2021/11/09 13:48:21;;;;;;;12.30;9.05;;;7.80;99.90;;;;;;5074651;28;20031;-76
2021/11/09 13:50:51;;;;;;;18.27;11.77;;;7.80;99.90;;;;;;5075886;28;20017;-76
2021/11/09 13:53:34;;;;;;;47.53;22.35;;;7.70;99.90;;;;;;5074660;28;20487;-76
2021/11/09 13:56:00;;;;;;;43.42;22.20;;;7.70;99.90;;;;;;5075784;28;20024;-76
2021/11/09 13:58:26;;;;;;;31.77;17.67;;;7.70;99.90;;;;;;5075711;28;20025;-76
2021/11/09 14:00:56;;;;;;;25.02;14.13;;;7.70;99.90;;;;;;5074124;28;20120;-76
2021/11/09 14:16:38;;;;;;;18.35;10.68;;;7.40;99.90;;;;;;5074616;28;20024;-76
2021/11/09 14:19:13;;;;;;;22.23;11.50;;;7.30;99.90;;;;;;5072790;28;20025;-76
2021/11/09 14:21:44;;;;;;;24.50;14.30;;;7.30;99.90;;;;;;5074260;28;20017;-76
2021/11/09 14:24:25;;;;;;;39.40;20.38;;;7.30;99.90;;;;;;5074307;28;20023;-75
2021/11/09 14:27:03;;;;;;;64.20;34.75;;;7.20;99.90;;;;;;5074189;28;20025;-76
2021/11/09 14:29:33;;;;;;;59.00;29.58;;;7.10;99.90;;;;;;5072723;28;20036;-76
2021/11/09 14:32:05;;;;;;;63.95;32.95;;;7.10;99.90;;;;;;5072872;28;20020;-76
2021/11/09 14:34:32;;;;;;;45.40;24.92;;;7.10;99.90;;;;;;5072414;28;20062;-76
2021/11/09 14:37:20;;;;;;;41.05;24.15;;;7.10;99.90;;;;;;5074085;28;20033;-76
2021/11/09 14:40:07;;;;;;;42.25;24.25;;;7.10;99.90;;;;;;5073910;28;20099;-76
2021/11/09 14:42:56;;;;;;;45.40;26.45;;;7.10;99.90;;;;;;5073970;28;20017;-76
2021/11/09 14:45:31;;;;;;;54.28;27.95;;;7.10;99.90;;;;;;5073847;28;20052;-76
2021/11/09 14:48:15;;;;;;;58.25;31.30;;;7.00;99.90;;;;;;5088834;28;20030;-76
2021/11/09 14:50:49;;;;;;;57.63;32.15;;;7.00;99.90;;;;;;5092973;28;20056;-76
2021/11/09 14:53:23;;;;;;;70.10;35.97;;;7.00;99.90;;;;;;5094007;28;20034;-76
2021/11/09 14:55:56;;;;;;;67.30;35.00;;;7.00;99.90;;;;;;5092539;28;20016;-76
2021/11/09 14:58:24;;;;;;;54.08;29.20;;;7.00;99.90;;;;;;5093969;28;20020;-76
2021/11/09 15:00:50;;;;;;;54.05;27.67;;;7.00;99.90;;;;;;5092539;28;20028;-76
2021/11/09 15:03:16;;;;;;;47.58;25.35;;;7.00;99.90;;;;;;5093914;28;20414;-76
2021/11/09 15:05:43;;;;;;;43.67;24.40;;;6.90;99.90;;;;;;5092401;28;20073;-76
2021/11/09 15:08:14;;;;;;;40.90;21.83;;;6.90;99.90;;;;;;5093698;28;20035;-76
2021/11/09 15:11:34;;;;;;;41.88;21.08;;;6.80;99.90;;;;;;5050298;28;20829;-75
2021/11/09 15:25:40;;;;;;;75.38;36.63;;;6.70;99.90;;;;;;5046702;28;20059;-76
2021/11/09 15:30:43;;;;;;;80.95;41.97;;;6.60;99.90;;;;;;5049190;28;20040;-76
2021/11/09 15:33:18;;;;;;;90.97;44.25;;;6.60;99.90;;;;;;5049509;28;20021;-76
2021/11/09 15:38:21;;;;;;;85.50;47.08;;;6.60;99.90;;;;;;5049699;28;20025;-76
2021/11/09 15:40:51;;;;;;;91.50;47.05;;;6.60;99.90;;;;;;5049330;28;20025;-76
2021/11/09 15:43:18;;;;;;;63.13;35.08;;;6.60;99.90;;;;;;5049370;28;20014;-76
2021/11/09 15:45:44;;;;;;;56.40;29.95;;;6.50;99.90;;;;;;5048711;28;20079;-76
2021/11/09 15:48:10;;;;;;;48.80;26.95;;;6.50;99.90;;;;;;5049639;28;20036;-76
2021/11/09 15:50:36;;;;;;;42.28;24.65;;;6.50;99.90;;;;;;5049393;28;20035;-76
2021/11/09 15:53:03;;;;;;;39.10;21.83;;;6.40;99.90;;;;;;5048148;28;20128;-76
2021/11/09 15:55:29;;;;;;;34.50;20.35;;;6.40;99.90;;;;;;5049442;28;20033;-76
2021/11/09 15:57:55;;;;;;;45.75;23.90;;;6.40;99.90;;;;;;5048048;28;20548;-76
2021/11/09 16:00:20;;;;;;;38.97;21.08;;;6.40;99.90;;;;;;5048384;28;20509;-76